Main page
METAR-TAF:

METAR-TAF

Airports :

Valence-Chabeuil Airport

Valence, France

latitude: 44-54-58N, longitude: 4-58-06E, elevation: 160 m

Current weather observation

The report was made 7 hours and 52 minutes ago, at 18:00 UTC
Wind 3 kt from the South/Southwest
Temperature 3°C
Humidity 75%
Pressure 1011 hPa
Visibility: 8000 m
Broken clouds at a height of 7800 ft

METAR: LFLU 191800Z AUTO 21003KT 8000 BKN078 03/M01 Q1011

Time: 02:52 (01:52 UTC)


TAF: missing

Weather observations and forecasts of more than 4000 airports (METAR and TAF reports).

The available stations are represented by yellow and red dots on the map.

Hover mouse over dot to see the name of the station.

Then click to see weather observations and forecasts.

To change the map : click on the green buttons with a black cross to zoom in, on the green button with a dash to zoom out, or on the green arrows for adjacent maps.


METAR-TAF: